Time;durP1;ratioP1;P1;durP2;ratioP2;P2;SDS_P1;SDS_P2;PMS_P1;PMS_P2;Temp;Humidity;BMP_temperature;BMP_pressure;BME280_temperature;BME280_humidity;BME280_pressure;Samples;Min_cycle;Max_cycle;Signal;HPM_P1;HPM_P2
2022/03/27 00:00:52;;;;;;;16.15;7.53;;;0.80;99.90;;;;;;5046186;28;20057;-47
2022/03/27 00:04:17;;;;;;;15.00;7.47;;;0.80;99.90;;;;;;5061835;28;20472;-48
2022/03/27 00:07:43;;;;;;;11.15;6.80;;;0.70;99.90;;;;;;5059803;28;20044;-48
2022/03/27 00:13:59;;;;;;;13.27;7.68;;;0.60;99.90;;;;;;5049892;28;20086;-60
2022/03/27 00:16:26;;;;;;;13.18;7.70;;;0.60;99.90;;;;;;5035458;28;20039;-60
2022/03/27 00:18:51;;;;;;;16.63;9.45;;;0.60;99.90;;;;;;5068960;28;20028;-61
2022/03/27 00:21:17;;;;;;;18.50;8.43;;;0.60;99.90;;;;;;5049829;28;20039;-60
2022/03/27 00:23:43;;;;;;;18.00;9.52;;;0.60;99.90;;;;;;5069955;28;20432;-60
2022/03/27 00:26:12;;;;;;;13.60;7.78;;;0.60;99.90;;;;;;5066884;28;20131;-60
2022/03/27 00:28:37;;;;;;;16.38;7.97;;;0.50;99.90;;;;;;5069464;28;20480;-61
2022/03/27 00:31:05;;;;;;;14.40;8.65;;;0.50;99.90;;;;;;5048266;28;20035;-60
2022/03/27 00:33:31;;;;;;;19.60;10.18;;;0.50;99.90;;;;;;5068669;28;20064;-61
2022/03/27 00:35:58;;;;;;;16.77;9.15;;;0.50;99.90;;;;;;5069447;28;20094;-60
2022/03/27 00:38:25;;;;;;;15.55;9.00;;;0.40;99.90;;;;;;5067459;28;20399;-61
2022/03/27 00:40:51;;;;;;;20.52;10.80;;;0.40;99.90;;;;;;5049420;28;20123;-61
2022/03/27 00:43:18;;;;;;;17.98;10.52;;;0.40;99.90;;;;;;5047882;28;20103;-61
2022/03/27 00:45:44;;;;;;;16.92;9.10;;;0.40;99.90;;;;;;5068051;28;20046;-61
2022/03/27 00:48:10;;;;;;;24.15;11.73;;;0.40;99.90;;;;;;5047848;28;20124;-61
2022/03/27 00:50:36;;;;;;;16.92;9.63;;;0.30;99.90;;;;;;5068245;28;20091;-61
2022/03/27 00:53:02;;;;;;;19.05;9.63;;;0.30;99.90;;;;;;5060915;28;20476;-60
2022/03/27 00:55:27;;;;;;;15.38;9.18;;;0.30;99.90;;;;;;5068619;28;20107;-61
2022/03/27 00:57:53;;;;;;;14.02;8.18;;;0.20;99.90;;;;;;5050185;28;20544;-61
2022/03/27 01:00:38;;;;;;;16.45;9.70;;;0.20;99.90;;;;;;5049170;28;20064;-61
2022/03/27 01:03:14;;;;;;;16.65;8.40;;;0.10;99.90;;;;;;5044209;28;20028;-60
2022/03/27 01:05:44;;;;;;;;;;;0.10;99.90;;;;;;5055441;28;20052;-61
2022/03/27 01:08:12;;;;;;;17.83;8.93;;;0.10;99.90;;;;;;5048781;28;20291;-61
2022/03/27 01:10:39;;;;;;;21.10;9.18;;;0.10;99.90;;;;;;5067752;28;20032;-60
2022/03/27 01:13:12;;;;;;;26.27;10.40;;;0.00;99.90;;;;;;5047103;28;20141;-60
2022/03/27 01:15:51;;;;;;;21.85;10.68;;;0.00;99.90;;;;;;5037843;28;20031;-60
2022/03/27 01:18:17;;;;;;;25.95;11.70;;;0.00;99.90;;;;;;5065439;28;20046;-60
2022/03/27 01:20:42;;;;;;;26.83;12.10;;;0.00;99.90;;;;;;5048757;28;20033;-61
2022/03/27 01:23:10;;;;;;;32.78;14.15;;;0.00;99.90;;;;;;5048031;28;20041;-61
2022/03/27 01:25:41;;;;;;;21.67;10.27;;;-0.10;99.90;;;;;;5066957;28;20532;-61
2022/03/27 01:28:10;;;;;;;18.35;9.20;;;-0.10;99.90;;;;;;5047978;28;20045;-61
2022/03/27 01:30:36;;;;;;;22.42;10.85;;;-0.10;99.90;;;;;;5067246;28;20059;-61
2022/03/27 01:33:13;;;;;;;21.15;10.38;;;-0.10;99.90;;;;;;5028227;28;20485;-61
2022/03/27 01:35:38;;;;;;;26.13;10.68;;;-0.20;99.90;;;;;;5055770;28;20048;-61
2022/03/27 01:38:04;;;;;;;18.85;9.60;;;-0.20;99.90;;;;;;5048901;28;20036;-61
2022/03/27 01:40:30;;;;;;;20.92;10.52;;;-0.20;99.90;;;;;;5067550;28;20029;-61
2022/03/27 01:42:55;;;;;;;18.88;9.63;;;-0.20;99.90;;;;;;5046801;28;20033;-61
2022/03/27 01:45:23;;;;;;;22.80;10.32;;;-0.20;99.90;;;;;;5057307;28;20032;-60
2022/03/27 01:47:49;;;;;;;19.10;9.32;;;-0.30;99.90;;;;;;5060040;28;20105;-60
2022/03/27 01:50:15;;;;;;;15.20;7.93;;;-0.30;99.90;;;;;;5067764;28;20136;-60
2022/03/27 01:52:40;;;;;;;13.98;7.75;;;-0.30;99.90;;;;;;5052121;28;20040;-60
2022/03/27 01:55:07;;;;;;;14.23;7.32;;;-0.30;99.90;;;;;;5066904;28;20024;-60
2022/03/27 01:57:33;;;;;;;14.90;7.43;;;-0.30;99.90;;;;;;5053618;28;20070;-61
2022/03/27 01:59:58;;;;;;;14.55;7.15;;;-0.40;99.90;;;;;;5067524;28;20028;-61
2022/03/27 02:02:24;;;;;;;12.57;7.85;;;-0.40;99.90;;;;;;5054256;28;20035;-60
2022/03/27 02:04:53;;;;;;;14.45;7.28;;;-0.40;99.90;;;;;;5064538;28;20080;-60
2022/03/27 02:07:22;;;;;;;16.45;7.55;;;-0.40;99.90;;;;;;5065379;28;20120;-60
2022/03/27 02:09:48;;;;;;;13.93;7.07;;;-0.40;99.90;;;;;;5047587;28;20060;-60
2022/03/27 02:12:13;;;;;;;11.02;6.80;;;-0.40;99.90;;;;;;5064787;28;20066;-61
2022/03/27 02:14:39;;;;;;;8.98;5.18;;;-0.40;99.90;;;;;;5047990;28;20029;-60
2022/03/27 02:17:05;;;;;;;14.13;7.45;;;-0.50;99.90;;;;;;5058324;28;20086;-60
2022/03/27 02:19:31;;;;;;;11.82;5.60;;;-0.50;99.90;;;;;;5047824;28;20041;-61
2022/03/27 02:21:56;;;;;;;12.95;6.65;;;-0.50;99.90;;;;;;5061842;28;20051;-61
2022/03/27 02:24:22;;;;;;;13.52;6.70;;;-0.40;99.90;;;;;;5046900;28;20029;-60
2022/03/27 02:26:49;;;;;;;12.52;6.47;;;-0.40;99.90;;;;;;5051956;28;20053;-60
2022/03/27 02:29:16;;;;;;;13.05;6.80;;;-0.40;99.90;;;;;;5027467;28;20541;-61
2022/03/27 02:31:42;;;;;;;11.20;6.85;;;-0.50;99.90;;;;;;5063643;28;20805;-60
2022/03/27 02:34:07;;;;;;;11.65;6.95;;;-0.50;99.90;;;;;;5066679;28;20056;-60
2022/03/27 02:36:32;;;;;;;11.98;6.53;;;-0.60;99.90;;;;;;5064588;28;20021;-61
2022/03/27 02:38:58;;;;;;;15.30;7.07;;;-0.60;99.90;;;;;;5064727;28;20028;-60
2022/03/27 02:41:23;;;;;;;11.93;6.53;;;-0.60;99.90;;;;;;5064288;28;20103;-60
2022/03/27 02:43:49;;;;;;;11.75;6.05;;;-0.60;99.90;;;;;;5068202;28;20120;-60
2022/03/27 02:46:15;;;;;;;15.45;8.30;;;-0.60;99.90;;;;;;5049667;28;20037;-60
2022/03/27 02:48:40;;;;;;;13.43;7.45;;;-0.70;99.90;;;;;;5069120;28;20500;-60
2022/03/27 02:51:06;;;;;;;16.40;7.78;;;-0.70;99.90;;;;;;5048434;28;20116;-60
2022/03/27 02:53:31;;;;;;;12.52;7.07;;;-0.80;99.90;;;;;;5068996;28;20111;-61
2022/03/27 02:55:57;;;;;;;12.35;6.60;;;-0.80;99.90;;;;;;5049684;28;20033;-60
2022/03/27 02:58:22;;;;;;;14.35;6.57;;;-0.80;99.90;;;;;;5066682;28;20123;-60
2022/03/27 03:00:48;;;;;;;13.25;6.95;;;-0.90;99.90;;;;;;5049588;28;20525;-60
2022/03/27 03:03:13;;;;;;;15.38;6.72;;;-0.90;99.90;;;;;;5048050;28;20036;-60
2022/03/27 03:05:40;;;;;;;13.30;6.95;;;-0.80;99.90;;;;;;5068087;28;20499;-60
2022/03/27 03:08:11;;;;;;;12.30;6.55;;;-0.80;99.90;;;;;;5047848;28;20032;-60
2022/03/27 03:10:38;;;;;;;14.20;7.30;;;-0.90;99.90;;;;;;5048855;28;20029;-60
2022/03/27 03:13:04;;;;;;;13.95;6.00;;;-0.90;99.90;;;;;;5049591;28;20424;-61
2022/03/27 03:15:29;;;;;;;14.00;7.03;;;-0.90;99.90;;;;;;5056033;28;20041;-60
2022/03/27 03:17:55;;;;;;;14.27;6.38;;;-0.90;99.90;;;;;;5062467;28;20054;-60
2022/03/27 03:20:21;;;;;;;10.93;6.07;;;-0.90;99.90;;;;;;5049223;28;20025;-61
2022/03/27 03:22:46;;;;;;;12.63;6.82;;;-0.90;99.90;;;;;;5044767;28;20082;-60
2022/03/27 03:25:12;;;;;;;13.88;6.97;;;-1.00;99.90;;;;;;5058530;28;20500;-60
2022/03/27 03:27:37;;;;;;;13.65;6.20;;;-1.00;99.90;;;;;;5052718;28;20159;-60
2022/03/27 03:30:07;;;;;;;10.40;5.22;;;-1.00;99.90;;;;;;5067634;28;20044;-60
2022/03/27 03:32:34;;;;;;;11.90;6.95;;;-1.00;99.90;;;;;;5047104;28;20510;-60
2022/03/27 03:35:01;;;;;;;15.35;7.47;;;-1.00;99.90;;;;;;5067924;28;20040;-60
2022/03/27 03:37:26;;;;;;;12.18;6.15;;;-1.10;99.90;;;;;;5046961;28;20254;-60
2022/03/27 03:39:52;;;;;;;14.98;6.78;;;-1.10;99.90;;;;;;5033109;28;20056;-60
2022/03/27 03:42:17;;;;;;;10.57;5.78;;;-1.10;99.90;;;;;;5057316;28;20024;-60
2022/03/27 03:44:43;;;;;;;10.68;5.70;;;-1.10;99.90;;;;;;5048873;28;20115;-60
2022/03/27 03:47:09;;;;;;;16.83;7.45;;;-1.10;99.90;;;;;;5065635;28;20016;-60
2022/03/27 03:49:35;;;;;;;8.57;5.45;;;-1.10;99.90;;;;;;5048807;28;20025;-60
2022/03/27 03:52:00;;;;;;;12.65;5.90;;;-1.10;99.90;;;;;;5065332;28;20016;-60
2022/03/27 03:54:26;;;;;;;10.55;5.57;;;-1.10;99.90;;;;;;5048802;28;20025;-61
2022/03/27 03:56:51;;;;;;;11.63;5.95;;;-1.10;99.90;;;;;;5031076;28;20059;-60
2022/03/27 03:59:17;;;;;;;14.40;7.18;;;-1.10;99.90;;;;;;5068213;28;20051;-61
2022/03/27 04:01:43;;;;;;;12.80;7.68;;;-1.10;99.90;;;;;;5052839;28;20024;-60
2022/03/27 04:04:08;;;;;;;18.52;7.93;;;-1.10;99.90;;;;;;5068078;28;20389;-60
2022/03/27 04:06:34;;;;;;;14.07;7.32;;;-1.10;99.90;;;;;;5051547;28;20127;-60
2022/03/27 04:08:59;;;;;;;8.88;4.28;;;-1.00;99.90;;;;;;5068272;28;20021;-61
2022/03/27 04:12:05;;;;;;;14.07;7.15;;;-1.00;99.90;;;;;;5057604;28;20029;-60
2022/03/27 04:15:30;;;;;;;12.60;6.43;;;-1.00;99.90;;;;;;5056946;28;20041;-60
2022/03/27 04:18:55;;;;;;;13.75;7.32;;;-1.00;99.90;;;;;;5056912;28;20153;-61
2022/03/27 04:22:21;;;;;;;10.32;5.47;;;-0.90;99.90;;;;;;5042013;28;20060;-61
2022/03/27 04:25:46;;;;;;;14.82;6.90;;;-0.90;99.90;;;;;;5054607;28;20415;-60
2022/03/27 04:29:12;;;;;;;8.43;5.32;;;-0.90;99.90;;;;;;5049617;28;20041;-61
2022/03/27 04:32:37;;;;;;;13.25;7.00;;;-0.80;99.90;;;;;;5057102;28;20055;-61
2022/03/27 04:36:02;;;;;;;15.32;6.40;;;-0.60;99.90;;;;;;5030973;28;20048;-61
2022/03/27 04:39:28;;;;;;;17.67;7.32;;;-0.50;99.90;;;;;;5048363;28;20485;-60
2022/03/27 04:42:53;;;;;;;16.63;7.47;;;-0.40;99.90;;;;;;5061366;28;20056;-61
2022/03/27 04:46:18;;;;;;;19.60;9.07;;;-0.30;99.90;;;;;;5035266;28;20048;-61
2022/03/27 04:49:44;;;;;;;26.05;8.27;;;-0.20;99.90;;;;;;5027862;28;20055;-61
2022/03/27 04:53:10;;;;;;;22.65;9.30;;;-0.10;99.90;;;;;;5060208;28;20501;-61
2022/03/27 04:56:35;;;;;;;27.60;8.18;;;0.00;99.90;;;;;;5047794;28;20560;-60
2022/03/27 05:00:00;;;;;;;31.70;9.73;;;0.10;99.90;;;;;;5064119;28;20029;-61
2022/03/27 05:03:25;;;;;;;34.88;9.88;;;0.20;99.90;;;;;;5064044;28;20044;-60
2022/03/27 05:06:51;;;;;;;32.65;9.30;;;0.30;99.90;;;;;;5065411;28;20048;-61
2022/03/27 05:10:16;;;;;;;29.65;10.50;;;0.30;99.90;;;;;;5060131;28;20047;-61
2022/03/27 05:13:41;;;;;;;34.38;9.10;;;0.40;99.90;;;;;;5065399;28;20036;-61
2022/03/27 05:17:07;;;;;;;37.15;11.43;;;0.50;99.90;;;;;;5046490;28;20082;-62
2022/03/27 05:20:32;;;;;;;47.65;9.57;;;0.50;99.90;;;;;;5059704;28;20044;-61
2022/03/27 05:23:58;;;;;;;37.55;11.68;;;0.60;99.90;;;;;;5065142;28;20029;-62
2022/03/27 05:27:23;;;;;;;48.95;11.95;;;0.70;99.90;;;;;;5049751;28;20416;-61
2022/03/27 05:30:48;;;;;;;34.17;10.98;;;0.80;99.90;;;;;;5065405;28;20120;-61
2022/03/27 05:34:13;;;;;;;28.58;10.73;;;1.00;99.90;;;;;;5051586;28;20039;-62
2022/03/27 05:37:39;;;;;;;46.17;11.27;;;1.20;99.90;;;;;;5060639;28;20024;-62
2022/03/27 05:41:04;;;;;;;27.23;9.25;;;1.30;99.90;;;;;;5057238;28;20040;-61
2022/03/27 05:44:30;;;;;;;31.83;8.95;;;1.50;99.90;;;;;;5052313;28;20049;-61
2022/03/27 05:47:55;;;;;;;35.22;9.75;;;1.80;99.90;;;;;;5064731;28;20420;-62
2022/03/27 05:51:20;;;;;;;23.20;8.65;;;2.10;99.90;;;;;;5057247;28;20070;-62
2022/03/27 05:54:46;;;;;;;24.17;7.75;;;2.40;99.90;;;;;;5056875;28;20075;-62
2022/03/27 05:58:11;;;;;;;18.92;8.23;;;2.80;99.90;;;;;;5067017;28;20040;-62
2022/03/27 06:01:36;;;;;;;21.73;7.10;;;3.20;99.90;;;;;;5049710;28;20076;-62
2022/03/27 06:04:22;;;;;;;17.25;7.07;;;3.40;99.90;;;;;;5066244;28;20033;-62
2022/03/27 06:06:47;;;;;;;18.85;6.25;;;3.40;99.90;;;;;;5050655;28;20040;-62
2022/03/27 06:09:54;;;;;;;14.48;5.82;;;3.60;99.90;;;;;;5050074;28;20217;-62
2022/03/27 06:13:19;;;;;;;16.73;6.68;;;3.70;99.90;;;;;;5056608;28;20062;-61
2022/03/27 06:16:44;;;;;;;19.25;6.03;;;3.90;99.90;;;;;;5042932;28;20488;-61
2022/03/27 06:20:09;;;;;;;36.05;7.25;;;4.10;99.90;;;;;;5062811;28;20033;-62
2022/03/27 06:23:34;;;;;;;36.10;6.53;;;4.10;99.90;;;;;;5049903;28;20048;-59
2022/03/27 06:27:00;;;;;;;57.75;7.25;;;4.30;99.90;;;;;;5065733;28;20044;-60
2022/03/27 06:30:28;;;;;;;20.65;5.50;;;4.70;99.90;;;;;;5030024;28;20095;-60
2022/03/27 06:33:53;;;;;;;50.97;6.70;;;5.10;99.90;;;;;;5047028;28;20544;-61
2022/03/27 06:37:19;;;;;;;50.28;6.45;;;5.40;99.90;;;;;;5054513;28;20044;-59
2022/03/27 06:40:44;;;;;;;41.35;6.30;;;5.80;99.90;;;;;;5058261;28;20040;-60
2022/03/27 06:44:10;;;;;;;31.08;6.07;;;6.20;99.90;;;;;;5067672;28;20117;-60
2022/03/27 06:47:35;;;;;;;29.00;5.47;;;6.60;99.90;;;;;;5063773;28;20416;-60
2022/03/27 06:51:00;;;;;;;18.02;5.32;;;6.70;99.90;;;;;;5058241;28;20309;-60
2022/03/27 06:54:26;;;;;;;18.90;6.22;;;6.90;99.90;;;;;;5065783;28;20109;-60
2022/03/27 06:57:51;;;;;;;22.95;6.82;;;7.00;99.90;;;;;;5046160;28;20060;-60
2022/03/27 07:04:40;;;;;;;25.75;7.93;;;7.80;99.90;;;;;;5065132;28;20117;-60
2022/03/27 07:08:05;;;;;;;22.13;8.48;;;8.10;99.90;;;;;;5043736;28;20128;-60
2022/03/27 07:11:31;;;;;;;27.52;7.90;;;9.00;99.90;;;;;;5057928;28;20040;-60
2022/03/27 07:14:57;;;;;;;17.17;7.72;;;9.30;98.20;;;;;;5057891;28;20036;-60
2022/03/27 07:18:22;;;;;;;23.83;8.82;;;9.60;98.90;;;;;;5046678;28;20060;-62
2022/03/27 07:21:47;;;;;;;16.98;8.15;;;9.90;98.70;;;;;;5055887;28;20037;-60
2022/03/27 07:25:13;;;;;;;21.08;9.60;;;10.40;92.30;;;;;;5035435;28;20066;-60
2022/03/27 07:28:38;;;;;;;17.50;8.95;;;10.80;94.30;;;;;;5046141;28;20045;-60
2022/03/27 07:32:03;;;;;;;20.77;11.10;;;11.80;89.40;;;;;;5055528;28;20569;-60
2022/03/27 07:35:30;;;;;;;22.27;10.23;;;11.60;70.40;;;;;;5028762;28;20047;-60
2022/03/27 07:38:54;;;;;;;16.17;8.63;;;10.80;76.00;;;;;;5064541;28;20040;-60
2022/03/27 07:42:19;;;;;;;10.70;6.38;;;11.10;86.30;;;;;;5034233;28;20032;-59
2022/03/27 07:45:45;;;;;;;9.88;6.80;;;11.40;83.70;;;;;;5044018;28;20040;-60
2022/03/27 07:49:10;;;;;;;7.45;5.50;;;12.20;74.00;;;;;;5057178;28;20039;-59
2022/03/27 07:52:35;;;;;;;9.32;6.05;;;13.30;71.60;;;;;;5043599;28;20106;-60
2022/03/27 07:56:01;;;;;;;7.13;5.28;;;15.10;60.80;;;;;;5046641;28;20048;-61
2022/03/27 07:59:26;;;;;;;8.52;6.00;;;17.10;42.00;;;;;;5046800;28;20059;-60
2022/03/27 08:02:52;;;;;;;6.90;4.95;;;17.60;41.80;;;;;;5047493;28;20040;-61
2022/03/27 08:06:17;;;;;;;5.32;4.65;;;20.00;31.60;;;;;;5044050;28;20131;-59
2022/03/27 08:09:42;;;;;;;8.80;6.50;;;22.00;29.80;;;;;;5060776;28;20395;-61
2022/03/27 08:13:07;;;;;;;10.82;7.03;;;23.00;20.40;;;;;;5061549;28;20033;-61
2022/03/27 08:16:33;;;;;;;8.95;6.63;;;22.00;20.40;;;;;;5038625;28;20041;-61
2022/03/27 08:19:58;;;;;;;11.15;7.22;;;23.00;18.40;;;;;;5055370;28;20037;-62
2022/03/27 08:23:24;;;;;;;11.50;8.43;;;24.40;14.60;;;;;;5046869;28;20694;-60
2022/03/27 08:26:55;;;;;;;11.25;8.38;;;24.10;14.40;;;;;;5044352;28;20097;-61
2022/03/27 08:30:20;;;;;;;9.23;7.47;;;23.60;15.30;;;;;;5061151;28;20729;-60
2022/03/27 08:33:48;;;;;;;8.75;6.32;;;23.20;15.50;;;;;;5027260;28;20069;-60
2022/03/27 08:37:12;;;;;;;7.30;5.55;;;24.90;13.90;;;;;;5044480;28;20120;-60
2022/03/27 08:40:38;;;;;;;6.53;5.15;;;26.00;13.20;;;;;;5034658;28;20037;-59
2022/03/27 08:44:02;;;;;;;6.90;5.72;;;26.00;13.10;;;;;;5050314;28;20064;-58
2022/03/27 08:47:33;;;;;;;7.65;6.22;;;26.10;9.60;;;;;;5065388;28;20107;-59
2022/03/27 08:50:58;;;;;;;6.93;5.72;;;25.90;12.70;;;;;;5062318;28;20056;-60
2022/03/27 08:54:21;;;;;;;9.98;6.30;;;25.70;10.00;;;;;;5058498;28;20086;-60
2022/03/27 08:57:36;;;;;;;8.00;6.18;;;24.90;12.70;;;;;;5064836;28;20098;-61
2022/03/27 09:01:04;;;;;;;7.55;6.75;;;26.00;10.00;;;;;;5053423;28;20037;-59
2022/03/27 09:04:29;;;;;;;8.40;7.05;;;26.60;10.50;;;;;;5066593;28;20040;-61
2022/03/27 09:07:55;;;;;;;6.10;5.05;;;27.20;10.70;;;;;;5068221;28;20386;-61
2022/03/27 09:11:20;;;;;;;7.00;6.30;;;27.60;7.50;;;;;;5048899;28;20041;-62
2022/03/27 09:14:45;;;;;;;6.90;6.20;;;27.60;10.00;;;;;;5066476;28;20037;-63
2022/03/27 09:17:54;;;;;;;7.43;6.50;;;28.00;9.30;;;;;;5053478;28;20029;-61
2022/03/27 09:21:02;;;;;;;7.60;5.97;;;28.50;9.10;;;;;;5048935;28;20505;-61
2022/03/27 09:24:30;;;;;;;8.13;5.57;;;28.90;10.70;;;;;;5053371;28;20052;-60
2022/03/27 09:27:56;;;;;;;7.40;6.55;;;29.20;6.80;;;;;;5058726;28;20512;-61
2022/03/27 09:31:21;;;;;;;7.68;6.60;;;29.30;6.10;;;;;;5053676;28;20053;-59
2022/03/27 09:34:46;;;;;;;7.03;5.47;;;28.90;6.50;;;;;;5058484;28;20094;-60
2022/03/27 09:38:13;;;;;;;6.20;5.55;;;29.10;7.70;;;;;;5058651;28;20036;-61
2022/03/27 09:41:51;;;;;;;7.05;5.88;;;29.60;5.10;;;;;;5043548;28;20036;-60
2022/03/27 09:45:13;;;;;;;5.57;5.07;;;29.70;4.80;;;;;;5053308;28;20427;-60
2022/03/27 09:48:38;;;;;;;6.93;5.63;;;29.90;4.60;;;;;;5064797;28;20881;-60
2022/03/27 09:52:10;;;;;;;5.90;5.07;;;29.90;4.60;;;;;;5044240;28;20083;-60
2022/03/27 09:55:35;;;;;;;5.78;5.18;;;29.70;4.20;;;;;;5061569;28;20573;-61
2022/03/27 09:58:53;;;;;;;7.93;4.65;;;29.50;3.70;;;;;;5048724;28;20033;-60
2022/03/27 10:02:17;;;;;;;5.85;4.90;;;29.40;4.40;;;;;;5056117;28;20040;-59
2022/03/27 10:05:42;;;;;;;5.57;5.03;;;29.40;4.40;;;;;;5053165;28;20032;-60
2022/03/27 10:09:07;;;;;;;6.15;5.10;;;29.60;3.70;;;;;;5046782;28;20539;-61
2022/03/27 10:12:34;;;;;;;6.70;6.00;;;29.70;4.00;;;;;;5061612;28;20052;-60
2022/03/27 10:15:59;;;;;;;6.28;4.82;;;29.60;3.10;;;;;;5054216;28;20043;-60
2022/03/27 10:19:23;;;;;;;5.60;4.65;;;28.50;3.70;;;;;;5053916;28;20037;-63
2022/03/27 10:22:48;;;;;;;5.82;4.45;;;27.60;4.80;;;;;;5055219;28;20059;-63
2022/03/27 10:26:14;;;;;;;6.47;4.90;;;24.80;7.10;;;;;;5045892;28;20630;-62
2022/03/27 10:29:39;;;;;;;4.07;3.45;;;22.40;11.00;;;;;;5054606;28;20037;-62
2022/03/27 10:33:05;;;;;;;6.57;5.30;;;20.80;14.10;;;;;;5060324;28;20040;-62
2022/03/27 10:36:45;;;;;;;6.05;5.07;;;19.60;17.10;;;;;;5046007;28;20631;-62
2022/03/27 10:40:03;;;;;;;8.10;5.80;;;18.60;18.30;;;;;;5055405;28;20128;-62
2022/03/27 10:43:24;;;;;;;;;;;18.00;19.60;;;;;;5045565;28;20044;-62
2022/03/27 10:46:49;;;;;;;5.78;4.75;;;17.60;21.50;;;;;;5047179;28;19923;-62
2022/03/27 10:50:00;;;;;;;8.25;6.10;;;17.30;21.30;;;;;;5051851;28;20044;-62
2022/03/27 10:52:52;;;;;;;7.10;4.88;;;17.10;23.10;;;;;;5045731;28;20056;-61
2022/03/27 10:56:17;;;;;;;6.95;5.28;;;16.90;22.00;;;;;;5037217;28;20033;-61
2022/03/27 10:59:49;;;;;;;7.70;6.18;;;16.80;22.70;;;;;;5045567;28;20068;-61
2022/03/27 11:03:26;;;;;;;6.13;4.78;;;16.70;23.60;;;;;;5050405;28;20036;-61
2022/03/27 11:07:13;;;;;;;6.60;5.80;;;16.60;24.80;;;;;;5061827;28;20048;-62
2022/03/27 11:10:37;;;;;;;10.63;6.32;;;16.60;24.50;;;;;;5059693;28;20157;-62
2022/03/27 11:13:26;;;;;;;8.77;6.05;;;16.50;25.40;;;;;;5057400;28;20138;-62
2022/03/27 11:16:51;;;;;;;8.60;6.20;;;16.40;23.70;;;;;;5048037;28;20492;-61
2022/03/27 11:20:19;;;;;;;8.40;6.05;;;16.40;24.70;;;;;;5052536;28;20056;-62
2022/03/27 11:23:45;;;;;;;6.32;5.57;;;16.30;24.10;;;;;;5058039;28;20492;-61
2022/03/27 11:26:30;;;;;;;9.57;6.18;;;16.30;24.60;;;;;;5038540;28;20063;-61
2022/03/27 11:29:58;;;;;;;7.90;5.85;;;16.20;23.90;;;;;;5025997;28;20039;-62
2022/03/27 11:33:03;;;;;;;;;;;16.20;25.00;;;;;;5055152;28;20041;-61
2022/03/27 11:36:00;;;;;;;5.05;4.13;;;16.20;26.00;;;;;;5044658;28;19955;-63
2022/03/27 11:38:52;;;;;;;8.13;5.80;;;16.20;24.10;;;;;;5025892;28;20029;-62
2022/03/27 11:42:29;;;;;;;9.00;6.38;;;16.10;24.10;;;;;;5040667;28;20904;-62
2022/03/27 11:46:01;;;;;;;8.35;6.65;;;15.90;25.40;;;;;;5055732;28;20044;-62
2022/03/27 11:49:27;;;;;;;7.00;5.90;;;15.90;25.70;;;;;;5051855;28;20270;-62
2022/03/27 11:52:52;;;;;;;7.57;6.78;;;15.90;25.80;;;;;;5059486;28;20726;-62
2022/03/27 11:56:27;;;;;;;9.82;7.80;;;16.00;27.80;;;;;;5042819;28;20141;-62
2022/03/27 12:00:05;;;;;;;11.07;7.53;;;16.10;26.40;;;;;;5061425;28;20127;-61
2022/03/27 12:03:35;;;;;;;9.50;6.85;;;16.20;27.60;;;;;;5063707;28;20037;-63
2022/03/27 12:07:04;;;;;;;11.18;7.75;;;16.20;26.20;;;;;;5053849;28;20415;-62
2022/03/27 12:10:18;;;;;;;;;;;16.20;26.10;;;;;;5029596;28;20038;-62
2022/03/27 12:13:44;;;;;;;8.57;6.78;;;16.10;27.20;;;;;;5052146;28;20372;-62
2022/03/27 12:17:09;;;;;;;6.63;4.82;;;16.10;26.00;;;;;;5043164;28;20045;-60
2022/03/27 12:20:41;;;;;;;6.97;5.20;;;16.20;25.70;;;;;;5056620;28;20095;-61
2022/03/27 12:24:07;;;;;;;8.32;6.22;;;16.40;24.40;;;;;;5051864;28;20041;-60
2022/03/27 12:31:14;;;;;;;11.20;7.47;;;16.60;23.90;;;;;;5041482;28;20044;-59
2022/03/27 12:34:39;;;;;;;6.10;5.00;;;16.60;24.00;;;;;;5064065;28;20044;-59
2022/03/27 12:38:05;;;;;;;8.13;6.72;;;16.60;23.90;;;;;;5058576;28;20496;-59
2022/03/27 12:41:30;;;;;;;8.80;6.15;;;16.50;23.90;;;;;;5045629;28;20130;-59
2022/03/27 12:45:08;;;;;;;7.13;5.60;;;16.50;23.80;;;;;;5066030;28;20519;-58
2022/03/27 12:48:33;;;;;;;10.93;5.82;;;16.40;24.20;;;;;;5049717;28;20087;-58
2022/03/27 12:51:58;;;;;;;8.05;5.75;;;16.40;24.10;;;;;;5057225;28;20040;-59
2022/03/27 12:55:33;;;;;;;6.57;5.43;;;16.40;23.30;;;;;;5063848;28;20047;-59
2022/03/27 12:58:54;;;;;;;5.47;4.18;;;16.30;22.30;;;;;;5049485;28;20041;-59
2022/03/27 13:02:19;;;;;;;4.93;3.72;;;16.20;22.60;;;;;;5057556;28;20036;-59
2022/03/27 13:05:49;;;;;;;5.00;3.92;;;16.20;22.70;;;;;;5066769;28;20048;-59
2022/03/27 13:09:13;;;;;;;8.32;4.78;;;16.10;22.80;;;;;;5059410;28;20040;-59
2022/03/27 13:12:38;;;;;;;6.55;4.00;;;16.00;23.00;;;;;;5062593;28;20036;-59
2022/03/27 13:16:05;;;;;;;4.60;3.85;;;15.90;22.70;;;;;;5048079;28;20066;-60
2022/03/27 13:19:46;;;;;;;6.20;4.88;;;15.80;22.90;;;;;;5029017;28;20120;-59
2022/03/27 13:23:11;;;;;;;6.28;4.10;;;15.70;23.70;;;;;;5065328;28;20071;-60
2022/03/27 13:26:36;;;;;;;5.20;3.70;;;15.70;23.40;;;;;;5049551;28;20053;-59
2022/03/27 13:30:02;;;;;;;4.50;3.30;;;15.60;23.30;;;;;;5057261;28;20110;-59
2022/03/27 13:33:27;;;;;;;5.15;3.63;;;15.60;22.20;;;;;;5064363;28;20051;-60
2022/03/27 13:36:52;;;;;;;6.47;3.65;;;15.70;22.30;;;;;;5044233;28;20421;-59
2022/03/27 13:40:18;;;;;;;5.63;4.00;;;15.60;22.30;;;;;;5065499;28;20036;-60
2022/03/27 13:43:43;;;;;;;4.43;3.30;;;15.60;22.60;;;;;;5031223;28;20411;-60
2022/03/27 13:47:08;;;;;;;5.57;4.13;;;15.50;22.90;;;;;;5061167;28;20048;-59
2022/03/27 13:50:34;;;;;;;3.78;3.17;;;15.50;22.40;;;;;;5057710;28;20484;-60
2022/03/27 13:53:59;;;;;;;5.47;4.00;;;15.50;22.60;;;;;;5066653;28;20028;-59
2022/03/27 13:57:25;;;;;;;5.38;3.95;;;15.50;22.80;;;;;;5065164;28;20492;-60
2022/03/27 14:00:50;;;;;;;5.30;3.90;;;15.40;23.40;;;;;;5050501;28;20037;-60
2022/03/27 14:04:15;;;;;;;6.35;4.68;;;15.50;23.00;;;;;;5063204;28;20029;-59
2022/03/27 14:07:41;;;;;;;5.55;3.50;;;15.60;22.80;;;;;;5050667;28;20049;-59
2022/03/27 14:11:06;;;;;;;4.90;3.72;;;15.60;23.10;;;;;;5059066;28;20029;-59
2022/03/27 14:14:31;;;;;;;5.18;4.15;;;15.50;22.80;;;;;;5066785;28;20653;-60
2022/03/27 14:17:57;;;;;;;5.38;4.22;;;15.50;22.80;;;;;;5047023;28;20029;-59
2022/03/27 14:21:22;;;;;;;4.32;3.65;;;15.50;23.30;;;;;;5059185;28;20392;-59
2022/03/27 14:24:49;;;;;;;4.45;3.60;;;15.50;22.80;;;;;;5050417;28;20059;-59
2022/03/27 14:28:13;;;;;;;6.22;3.30;;;15.50;23.20;;;;;;5050815;28;20040;-59
2022/03/27 14:31:38;;;;;;;7.53;3.83;;;15.50;23.10;;;;;;5058862;28;20090;-60
2022/03/27 14:35:05;;;;;;;5.35;4.22;;;15.40;23.20;;;;;;5064124;28;20032;-59
2022/03/27 14:38:29;;;;;;;4.43;2.90;;;15.40;23.10;;;;;;5048832;28;20041;-59
2022/03/27 14:41:54;;;;;;;5.03;2.80;;;15.40;23.40;;;;;;5056629;28;20040;-60
2022/03/27 14:45:21;;;;;;;6.20;3.47;;;15.30;23.20;;;;;;5051367;28;20033;-59
2022/03/27 14:48:45;;;;;;;3.70;2.90;;;15.20;23.10;;;;;;5048365;28;20426;-60
2022/03/27 14:52:10;;;;;;;3.55;2.28;;;15.20;23.20;;;;;;5056375;28;20118;-59
2022/03/27 14:59:00;;;;;;;4.50;2.35;;;15.10;22.70;;;;;;5056193;28;20103;-59
2022/03/27 15:02:25;;;;;;;4.13;2.47;;;15.10;22.70;;;;;;5028297;28;20409;-59
2022/03/27 15:05:51;;;;;;;4.25;2.20;;;15.00;22.70;;;;;;5065967;28;20040;-60
2022/03/27 15:09:16;;;;;;;2.17;1.77;;;14.90;22.80;;;;;;5046427;28;20504;-59
2022/03/27 15:12:41;;;;;;;3.63;2.60;;;15.00;21.50;;;;;;5056716;28;20044;-59
2022/03/27 15:16:07;;;;;;;3.38;2.40;;;15.00;21.80;;;;;;5050250;28;20401;-59
2022/03/27 15:19:32;;;;;;;3.83;2.40;;;14.90;21.50;;;;;;5056797;28;20064;-60
2022/03/27 15:22:57;;;;;;;2.88;1.95;;;14.80;21.50;;;;;;5056770;28;20582;-59
2022/03/27 15:26:23;;;;;;;6.88;2.60;;;14.80;21.70;;;;;;5062013;28;20048;-59
2022/03/27 15:29:48;;;;;;;3.15;2.42;;;14.70;22.40;;;;;;5049033;28;20040;-59
2022/03/27 15:33:13;;;;;;;4.28;2.45;;;14.60;22.60;;;;;;5054760;28;20037;-58
2022/03/27 15:36:39;;;;;;;3.78;2.85;;;14.60;23.20;;;;;;5028063;28;20040;-59
2022/03/27 15:40:04;;;;;;;4.10;1.92;;;14.60;23.50;;;;;;5049005;28;20403;-59
2022/03/27 15:43:30;;;;;;;3.33;1.98;;;14.60;23.70;;;;;;5059406;28;20043;-59
2022/03/27 15:46:55;;;;;;;2.28;2.00;;;14.50;23.80;;;;;;5048001;28;20114;-59
2022/03/27 15:50:22;;;;;;;13.43;2.20;;;14.50;23.90;;;;;;5044050;28;20029;-60
2022/03/27 15:53:46;;;;;;;2.83;1.92;;;14.40;23.40;;;;;;5061062;28;20435;-59
2022/03/27 15:57:11;;;;;;;3.80;2.17;;;14.40;23.40;;;;;;5056636;28;20028;-59
2022/03/27 16:00:37;;;;;;;2.78;2.30;;;14.40;23.70;;;;;;5060868;28;20052;-60
2022/03/27 16:04:02;;;;;;;4.80;2.15;;;14.30;23.40;;;;;;5047158;28;20082;-59
2022/03/27 16:07:27;;;;;;;2.33;1.58;;;14.30;23.80;;;;;;5063440;28;20055;-59
2022/03/27 16:10:53;;;;;;;1.88;1.42;;;14.20;23.80;;;;;;5064148;28;20036;-60
2022/03/27 16:14:18;;;;;;;2.63;1.67;;;14.00;23.90;;;;;;5061841;28;20029;-59
2022/03/27 16:17:43;;;;;;;3.05;1.77;;;14.10;23.40;;;;;;5056859;28;20040;-59
2022/03/27 16:21:09;;;;;;;3.28;1.80;;;14.00;23.50;;;;;;5065621;28;20412;-59